Montezuma, NM (87731)

10:37 AM MDT on August 30, 2014 (GMT -0600)
Las Vegas Municipal | Change Station
CLOSE
Current Station
Airport
Location: Las Vegas,
Elevation: 6877 ft
Nearby Weather Stations

Elev 6877 ft 35.65 °N, 105.14 °W | Updated 44 minutes ago

Clear
Clear
69 °F
Feels Like 69 °F
N
7
Wind Variable Wind from South

Today
High -- | Low -- °F
--% Chance of Precip.
Yesterday
High -- | Low -- °F
Precip. -- in
6:31 AM 7:31 PM
Waxing Crescent, 23% visible
Pressure 29.99 in
Visibility 10.0 miles
Clouds Clear
Dew Point 42 °F
Humidity 38%
Rainfall 0.00 in
Snow Depth 1 in
UV 6 out of 12
Pollen 8.70 out of 12
Air Quality Not available.
Flu Activity Not available.
METAR KLVS 301553Z AUTO 19006KT 10SM CLR 21/06 A3029 RMK AO2 SLP155 T02060056

More Conditions Fewer Conditions

Pressure 29.99 in
Visibility 10.0 miles
Clouds Clear
Dew Point 42 °F
Humidity 38%
Rainfall 0.00 in
Snow Depth 1 in
UV 6 out of 12
Pollen 8.70 out of 12
Air Quality Not available.
Flu Activity Not available.
METAR KLVS 301553Z AUTO 19006KT 10SM CLR 21/06 A3029 RMK AO2 SLP155 T02060056

More Conditions Fewer Conditions

10-Day Weather Forecast

Almanac

Astronomy

Aug. 30, 2014 Rise Set
Actual Time 6:31 AM MDT 7:31 PM MDT
Civil Twilight 6:05 AM MDT 7:57 PM MDT
Nautical Twilight 5:34 AM MDT 8:28 PM MDT
Astronomical Twilight 5:02 AM MDT 9:00 PM MDT
Moon 11:10 AM MDT 10:18 PM MDT
Length of Visible Light 13h 51m
Length of Day
12h 59m
Tomorrow will be 2m 9s shorter.
Waxing Crescent, 23% of the Moon is Illuminated
Today
Waxing Crescent
Sep 2
First Quarter
Sep 8
Full
Sep 15
Last Quarter
Sep 24
New

Today's Extremes

State Highs State Lows

Community

WunderPhotos

Upload Photos

1,748,557 photos uploaded!

WunderBlogs® & News

Nearby

Snow Depth

Station Depth Elevation
Wesner Springs 1 in 11120 ft
Gallegos Peak 0 in 9800 ft
Quemazon 1 in 9500 ft
Bateman 0 in 9300 ft
Hopewell 0 in 10000 ft

Earthquake Activity

City Distance Mag. Time & Date
No recent earthquake activity has been reported nearby.
Minimum magnitude displayed is 2.5.

Coastal Water Temperatures

Place Temperature
No Stations Reporting

Nearby Weather Stations